Airfield :
LOGIN :

Register | Disclaimer

   EN    FR    IT 

 










Legend :    VFR   Marginal VFR   IFR   Intensive IFR   Very Intensive IFR
Visi :
Ceiling :
>= 8 km
>= 3000ft
5 to 8 km
1000 to 3000 ft
1500m to 5 km
500 to 1000 ft
800 to 1500m
200 to 500 ft
< 800m
< 200 ft
Symbols :   Thunderstorms  Fog  Heavy snow  Heavy precipitations  Wind > 20 kt
SIGMETs :     Misc.  Thunderstorms  Icing  Turbulence  Mountain Waves  Volcanic Ashes






- Airport Elevation : -11 ft
- IATA code : AMS


EHAM - Amsterdam Schiphol

CURRENT METAR :
  • 181055Z 22024KT 9999 FEW025 SCT028CB 14/08 Q1000 TEMPO 7000 SHRA

EXPIRED METARs :
  • 181025Z 21025G35KT 180V250 9999 FEW029 14/08 Q1000 TEMPO 22025G35KT 7000 SHRA SCT020CB
  • 180955Z 23021KT 200V260 9999 FEW020CB 12/08 Q1000 TEMPO 22025G35KT
  • 180925Z 17018KT 150V210 9999 -SHRA FEW010 SCT015CB 14/11 Q1000 BECMG 20020G30KT TEMPO 5000 SHRA
  • 180855Z 17016KT 9999 FEW009 SCT015CB BKN025 14/12 Q1000 TEMPO 20020G30KT 6000 SHRA
  • 180825Z 16016KT 140V200 9999 FEW010 SCT018CB 13/12 Q1000 TEMPO 20020G30KT 6000 SHRA

TAF TAF EHAM
Valid from the 18 at 06:00 until the 19 at 12:00 UTC


180442Z 1806/1912 18014KT 9999 SCT020
TEMPO 1807/1820 7000 -SHRA SCT018CB BKN040
BECMG 1808/1811 21020G30KT
PROB30
TEMPO 1808/1816 22025G37KT 4000 SHRA TSRAGS SCT015CB BKN030
BECMG 1820/1823 19010KT
TEMPO 1906/1912 6000 RA SHRA BKN012 FEW020CB



MET'MAP, your aeronautical weather chart ! - Copyright ORBIFLY December 2007 - Disclaimer

ORBIFLY MET'MAP TEAM :

Programming & Development : Alexandra Zaïnal
Concept & Development : Baudouin d'Aumeries
Co-Development & Prog : Marc-Olivier Méhu
Technical & hardware support : Manuel Goepfert

Contact : metmap@orbifly.com




SOURCES & CREDITS :

   NOAA